sensor_id;sensor_type;location;lat;lon;timestamp;P1;durP1;ratioP1;P2;durP2;ratioP2
56927;SDS011;60850;52.502;13.426;2023-05-10T00:01:35;5.55;;;4.25;;
56927;SDS011;60850;52.502;13.426;2023-05-10T00:04:02;5.13;;;4.38;;
56927;SDS011;60850;52.502;13.426;2023-05-10T00:06:29;7.25;;;4.80;;
56927;SDS011;60850;52.502;13.426;2023-05-10T00:08:57;8.55;;;5.55;;
56927;SDS011;60850;52.502;13.426;2023-05-10T00:11:23;7.47;;;4.70;;
56927;SDS011;60850;52.502;13.426;2023-05-10T00:13:50;8.13;;;5.15;;
56927;SDS011;60850;52.502;13.426;2023-05-10T00:16:18;11.20;;;5.28;;
56927;SDS011;60850;52.502;13.426;2023-05-10T00:18:45;7.18;;;5.00;;
56927;SDS011;60850;52.502;13.426;2023-05-10T00:21:12;8.25;;;4.90;;
56927;SDS011;60850;52.502;13.426;2023-05-10T00:23:39;6.93;;;5.43;;
56927;SDS011;60850;52.502;13.426;2023-05-10T00:26:06;7.68;;;5.00;;
56927;SDS011;60850;52.502;13.426;2023-05-10T00:28:33;7.35;;;5.03;;
56927;SDS011;60850;52.502;13.426;2023-05-10T00:31:00;9.98;;;5.25;;
56927;SDS011;60850;52.502;13.426;2023-05-10T00:33:29;8.45;;;5.22;;
56927;SDS011;60850;52.502;13.426;2023-05-10T00:35:55;8.75;;;5.28;;
56927;SDS011;60850;52.502;13.426;2023-05-10T00:38:22;8.10;;;5.18;;
56927;SDS011;60850;52.502;13.426;2023-05-10T00:40:49;7.80;;;5.10;;
56927;SDS011;60850;52.502;13.426;2023-05-10T00:43:16;8.50;;;5.88;;
56927;SDS011;60850;52.502;13.426;2023-05-10T00:45:43;10.68;;;5.80;;
56927;SDS011;60850;52.502;13.426;2023-05-10T00:48:11;7.72;;;6.15;;
56927;SDS011;60850;52.502;13.426;2023-05-10T00:50:39;6.68;;;5.30;;
56927;SDS011;60850;52.502;13.426;2023-05-10T00:53:07;8.25;;;5.63;;
56927;SDS011;60850;52.502;13.426;2023-05-10T00:55:34;6.82;;;5.35;;
56927;SDS011;60850;52.502;13.426;2023-05-10T00:58:01;6.70;;;5.35;;
56927;SDS011;60850;52.502;13.426;2023-05-10T01:00:28;10.18;;;5.55;;
56927;SDS011;60850;52.502;13.426;2023-05-10T01:02:55;6.55;;;4.97;;
56927;SDS011;60850;52.502;13.426;2023-05-10T01:05:22;7.07;;;4.90;;
56927;SDS011;60850;52.502;13.426;2023-05-10T01:07:50;9.48;;;5.20;;
56927;SDS011;60850;52.502;13.426;2023-05-10T01:10:17;6.57;;;5.28;;
56927;SDS011;60850;52.502;13.426;2023-05-10T01:12:45;10.20;;;5.40;;
56927;SDS011;60850;52.502;13.426;2023-05-10T01:15:13;7.93;;;5.35;;
56927;SDS011;60850;52.502;13.426;2023-05-10T01:17:42;7.05;;;5.47;;
56927;SDS011;60850;52.502;13.426;2023-05-10T01:20:11;9.38;;;5.68;;
56927;SDS011;60850;52.502;13.426;2023-05-10T01:22:52;8.32;;;5.32;;
56927;SDS011;60850;52.502;13.426;2023-05-10T01:25:37;9.70;;;5.90;;
56927;SDS011;60850;52.502;13.426;2023-05-10T01:28:26;8.27;;;5.75;;
56927;SDS011;60850;52.502;13.426;2023-05-10T01:31:08;8.00;;;5.30;;
56927;SDS011;60850;52.502;13.426;2023-05-10T01:33:59;10.98;;;5.72;;
56927;SDS011;60850;52.502;13.426;2023-05-10T01:36:30;8.32;;;6.03;;
56927;SDS011;60850;52.502;13.426;2023-05-10T01:39:02;8.10;;;6.00;;
56927;SDS011;60850;52.502;13.426;2023-05-10T01:41:36;7.55;;;5.05;;
56927;SDS011;60850;52.502;13.426;2023-05-10T01:44:14;7.60;;;5.40;;
56927;SDS011;60850;52.502;13.426;2023-05-10T01:46:44;6.82;;;5.43;;
56927;SDS011;60850;52.502;13.426;2023-05-10T01:49:21;8.73;;;5.40;;
56927;SDS011;60850;52.502;13.426;2023-05-10T01:51:52;8.70;;;5.07;;
56927;SDS011;60850;52.502;13.426;2023-05-10T01:54:21;7.53;;;5.38;;
56927;SDS011;60850;52.502;13.426;2023-05-10T01:56:52;10.50;;;5.38;;
56927;SDS011;60850;52.502;13.426;2023-05-10T01:59:25;6.78;;;4.95;;
56927;SDS011;60850;52.502;13.426;2023-05-10T02:01:57;7.15;;;5.32;;
56927;SDS011;60850;52.502;13.426;2023-05-10T02:04:27;7.82;;;5.40;;
56927;SDS011;60850;52.502;13.426;2023-05-10T02:06:55;14.13;;;5.03;;
56927;SDS011;60850;52.502;13.426;2023-05-10T02:09:23;7.45;;;4.95;;
56927;SDS011;60850;52.502;13.426;2023-05-10T02:11:52;6.35;;;4.85;;
56927;SDS011;60850;52.502;13.426;2023-05-10T02:14:21;8.65;;;5.18;;
56927;SDS011;60850;52.502;13.426;2023-05-10T02:16:49;8.68;;;5.55;;
56927;SDS011;60850;52.502;13.426;2023-05-10T02:19:17;6.43;;;4.70;;
56927;SDS011;60850;52.502;13.426;2023-05-10T02:21:47;7.00;;;5.38;;
56927;SDS011;60850;52.502;13.426;2023-05-10T02:24:17;6.85;;;5.18;;
56927;SDS011;60850;52.502;13.426;2023-05-10T02:26:45;6.47;;;4.78;;
56927;SDS011;60850;52.502;13.426;2023-05-10T02:29:13;11.48;;;5.60;;
56927;SDS011;60850;52.502;13.426;2023-05-10T02:31:42;6.65;;;5.03;;
56927;SDS011;60850;52.502;13.426;2023-05-10T02:34:10;6.82;;;5.18;;
56927;SDS011;60850;52.502;13.426;2023-05-10T02:36:39;6.75;;;5.00;;
56927;SDS011;60850;52.502;13.426;2023-05-10T02:39:09;6.40;;;4.93;;
56927;SDS011;60850;52.502;13.426;2023-05-10T02:41:38;8.57;;;5.05;;
56927;SDS011;60850;52.502;13.426;2023-05-10T02:44:07;9.68;;;4.97;;
56927;SDS011;60850;52.502;13.426;2023-05-10T02:46:35;8.10;;;5.25;;
56927;SDS011;60850;52.502;13.426;2023-05-10T02:49:03;9.23;;;5.03;;
56927;SDS011;60850;52.502;13.426;2023-05-10T02:51:31;8.70;;;5.07;;
56927;SDS011;60850;52.502;13.426;2023-05-10T02:54:03;8.38;;;5.43;;
56927;SDS011;60850;52.502;13.426;2023-05-10T02:56:36;5.65;;;4.78;;
56927;SDS011;60850;52.502;13.426;2023-05-10T03:01:36;8.40;;;4.95;;
56927;SDS011;60850;52.502;13.426;2023-05-10T03:04:03;7.53;;;4.80;;
56927;SDS011;60850;52.502;13.426;2023-05-10T03:06:30;8.80;;;4.25;;
56927;SDS011;60850;52.502;13.426;2023-05-10T03:08:57;8.25;;;4.80;;
56927;SDS011;60850;52.502;13.426;2023-05-10T03:11:28;6.50;;;4.93;;
56927;SDS011;60850;52.502;13.426;2023-05-10T03:14:10;8.43;;;5.20;;
56927;SDS011;60850;52.502;13.426;2023-05-10T03:16:50;8.50;;;4.95;;
56927;SDS011;60850;52.502;13.426;2023-05-10T03:19:24;6.10;;;4.50;;
56927;SDS011;60850;52.502;13.426;2023-05-10T03:21:53;7.18;;;4.72;;
56927;SDS011;60850;52.502;13.426;2023-05-10T03:24:25;7.85;;;4.40;;
56927;SDS011;60850;52.502;13.426;2023-05-10T03:26:54;7.63;;;4.57;;
56927;SDS011;60850;52.502;13.426;2023-05-10T03:29:25;11.60;;;5.75;;
56927;SDS011;60850;52.502;13.426;2023-05-10T03:31:52;6.40;;;4.65;;
56927;SDS011;60850;52.502;13.426;2023-05-10T03:34:22;7.35;;;4.47;;
56927;SDS011;60850;52.502;13.426;2023-05-10T03:36:50;8.40;;;4.78;;
56927;SDS011;60850;52.502;13.426;2023-05-10T03:39:17;9.02;;;4.43;;
56927;SDS011;60850;52.502;13.426;2023-05-10T03:41:44;8.63;;;4.82;;
56927;SDS011;60850;52.502;13.426;2023-05-10T03:44:11;6.68;;;5.00;;
56927;SDS011;60850;52.502;13.426;2023-05-10T03:46:39;8.25;;;4.72;;
56927;SDS011;60850;52.502;13.426;2023-05-10T03:49:06;5.88;;;4.13;;
56927;SDS011;60850;52.502;13.426;2023-05-10T03:51:33;6.82;;;4.65;;
56927;SDS011;60850;52.502;13.426;2023-05-10T03:54:00;7.43;;;4.45;;
56927;SDS011;60850;52.502;13.426;2023-05-10T03:56:26;8.25;;;5.00;;
56927;SDS011;60850;52.502;13.426;2023-05-10T03:58:53;6.68;;;4.43;;
56927;SDS011;60850;52.502;13.426;2023-05-10T04:01:20;7.32;;;4.50;;
56927;SDS011;60850;52.502;13.426;2023-05-10T04:03:48;7.05;;;4.13;;
56927;SDS011;60850;52.502;13.426;2023-05-10T04:06:15;7.25;;;4.60;;
56927;SDS011;60850;52.502;13.426;2023-05-10T04:08:42;7.18;;;4.38;;
56927;SDS011;60850;52.502;13.426;2023-05-10T04:11:09;6.82;;;4.68;;
56927;SDS011;60850;52.502;13.426;2023-05-10T04:13:38;7.60;;;3.95;;
56927;SDS011;60850;52.502;13.426;2023-05-10T04:16:05;7.63;;;4.47;;
56927;SDS011;60850;52.502;13.426;2023-05-10T04:18:32;6.65;;;4.85;;
56927;SDS011;60850;52.502;13.426;2023-05-10T04:21:00;7.47;;;3.95;;
56927;SDS011;60850;52.502;13.426;2023-05-10T04:23:27;8.68;;;5.05;;
56927;SDS011;60850;52.502;13.426;2023-05-10T04:25:58;8.63;;;4.30;;
56927;SDS011;60850;52.502;13.426;2023-05-10T04:28:26;6.90;;;4.45;;
56927;SDS011;60850;52.502;13.426;2023-05-10T04:30:53;7.68;;;4.18;;
56927;SDS011;60850;52.502;13.426;2023-05-10T04:33:26;5.55;;;3.90;;
56927;SDS011;60850;52.502;13.426;2023-05-10T04:35:53;7.90;;;3.90;;
56927;SDS011;60850;52.502;13.426;2023-05-10T04:38:21;7.80;;;4.47;;
56927;SDS011;60850;52.502;13.426;2023-05-10T04:40:48;9.02;;;4.45;;
56927;SDS011;60850;52.502;13.426;2023-05-10T04:43:15;8.10;;;4.43;;
56927;SDS011;60850;52.502;13.426;2023-05-10T04:45:42;6.10;;;4.05;;
56927;SDS011;60850;52.502;13.426;2023-05-10T04:48:09;6.30;;;4.13;;
56927;SDS011;60850;52.502;13.426;2023-05-10T04:50:36;5.70;;;3.90;;
56927;SDS011;60850;52.502;13.426;2023-05-10T04:53:03;6.53;;;3.67;;
56927;SDS011;60850;52.502;13.426;2023-05-10T04:55:31;9.63;;;4.25;;
56927;SDS011;60850;52.502;13.426;2023-05-10T04:57:58;5.18;;;3.65;;
56927;SDS011;60850;52.502;13.426;2023-05-10T05:00:25;6.63;;;4.15;;
56927;SDS011;60850;52.502;13.426;2023-05-10T05:02:52;6.43;;;4.07;;
56927;SDS011;60850;52.502;13.426;2023-05-10T05:05:19;5.40;;;3.90;;
56927;SDS011;60850;52.502;13.426;2023-05-10T05:07:46;7.47;;;3.97;;
56927;SDS011;60850;52.502;13.426;2023-05-10T05:10:13;5.88;;;3.65;;
56927;SDS011;60850;52.502;13.426;2023-05-10T05:12:41;6.50;;;3.55;;
56927;SDS011;60850;52.502;13.426;2023-05-10T05:15:08;7.97;;;4.40;;
56927;SDS011;60850;52.502;13.426;2023-05-10T05:17:36;5.05;;;3.65;;
56927;SDS011;60850;52.502;13.426;2023-05-10T05:20:03;5.47;;;3.50;;
56927;SDS011;60850;52.502;13.426;2023-05-10T05:22:31;6.63;;;3.53;;
56927;SDS011;60850;52.502;13.426;2023-05-10T05:24:58;6.50;;;3.25;;
56927;SDS011;60850;52.502;13.426;2023-05-10T05:27:25;5.70;;;3.60;;
56927;SDS011;60850;52.502;13.426;2023-05-10T05:29:54;5.25;;;3.15;;
56927;SDS011;60850;52.502;13.426;2023-05-10T05:32:22;5.97;;;3.67;;
56927;SDS011;60850;52.502;13.426;2023-05-10T05:34:49;5.25;;;3.38;;
56927;SDS011;60850;52.502;13.426;2023-05-10T05:37:17;7.18;;;3.60;;
56927;SDS011;60850;52.502;13.426;2023-05-10T05:39:44;5.32;;;3.75;;
56927;SDS011;60850;52.502;13.426;2023-05-10T05:42:12;4.07;;;2.85;;
56927;SDS011;60850;52.502;13.426;2023-05-10T05:44:39;10.88;;;3.30;;
56927;SDS011;60850;52.502;13.426;2023-05-10T05:47:08;5.63;;;2.90;;
56927;SDS011;60850;52.502;13.426;2023-05-10T05:49:35;6.68;;;2.90;;
56927;SDS011;60850;52.502;13.426;2023-05-10T05:52:03;6.68;;;3.10;;
56927;SDS011;60850;52.502;13.426;2023-05-10T05:54:30;5.30;;;2.55;;
56927;SDS011;60850;52.502;13.426;2023-05-10T05:56:58;4.65;;;2.72;;
56927;SDS011;60850;52.502;13.426;2023-05-10T05:59:26;4.18;;;3.00;;
56927;SDS011;60850;52.502;13.426;2023-05-10T06:01:53;4.25;;;2.63;;
56927;SDS011;60850;52.502;13.426;2023-05-10T06:04:21;4.35;;;2.88;;
56927;SDS011;60850;52.502;13.426;2023-05-10T06:06:48;4.43;;;2.50;;
56927;SDS011;60850;52.502;13.426;2023-05-10T06:09:15;5.55;;;2.42;;
56927;SDS011;60850;52.502;13.426;2023-05-10T06:11:42;4.28;;;2.63;;
56927;SDS011;60850;52.502;13.426;2023-05-10T06:14:09;2.97;;;2.35;;
56927;SDS011;60850;52.502;13.426;2023-05-10T06:16:36;7.45;;;2.67;;
56927;SDS011;60850;52.502;13.426;2023-05-10T06:19:03;6.88;;;2.53;;
56927;SDS011;60850;52.502;13.426;2023-05-10T06:21:31;4.38;;;2.30;;
56927;SDS011;60850;52.502;13.426;2023-05-10T06:23:58;3.65;;;2.58;;
56927;SDS011;60850;52.502;13.426;2023-05-10T06:26:25;5.68;;;2.33;;
56927;SDS011;60850;52.502;13.426;2023-05-10T06:28:52;6.47;;;2.60;;
56927;SDS011;60850;52.502;13.426;2023-05-10T06:31:19;4.70;;;2.40;;
56927;SDS011;60850;52.502;13.426;2023-05-10T06:33:46;5.90;;;2.63;;
56927;SDS011;60850;52.502;13.426;2023-05-10T06:36:13;3.85;;;2.47;;
56927;SDS011;60850;52.502;13.426;2023-05-10T06:38:41;6.75;;;2.80;;
56927;SDS011;60850;52.502;13.426;2023-05-10T06:41:08;4.18;;;2.30;;
56927;SDS011;60850;52.502;13.426;2023-05-10T06:43:34;4.57;;;2.20;;
56927;SDS011;60850;52.502;13.426;2023-05-10T06:46:05;10.13;;;2.30;;
56927;SDS011;60850;52.502;13.426;2023-05-10T06:48:32;4.43;;;2.20;;
56927;SDS011;60850;52.502;13.426;2023-05-10T06:50:59;2.85;;;2.30;;
56927;SDS011;60850;52.502;13.426;2023-05-10T06:53:26;3.33;;;2.28;;
56927;SDS011;60850;52.502;13.426;2023-05-10T06:55:54;6.63;;;2.80;;
56927;SDS011;60850;52.502;13.426;2023-05-10T06:58:21;2.92;;;2.38;;
56927;SDS011;60850;52.502;13.426;2023-05-10T07:00:48;2.47;;;2.28;;
56927;SDS011;60850;52.502;13.426;2023-05-10T07:03:15;4.25;;;2.28;;
56927;SDS011;60850;52.502;13.426;2023-05-10T07:05:42;5.10;;;2.40;;
56927;SDS011;60850;52.502;13.426;2023-05-10T07:08:09;6.47;;;2.45;;
56927;SDS011;60850;52.502;13.426;2023-05-10T07:10:36;5.10;;;2.33;;
56927;SDS011;60850;52.502;13.426;2023-05-10T07:13:04;5.18;;;2.20;;
56927;SDS011;60850;52.502;13.426;2023-05-10T07:15:31;5.25;;;2.42;;
56927;SDS011;60850;52.502;13.426;2023-05-10T07:17:58;5.95;;;2.28;;
56927;SDS011;60850;52.502;13.426;2023-05-10T07:20:25;3.22;;;2.00;;
56927;SDS011;60850;52.502;13.426;2023-05-10T07:22:52;7.22;;;2.50;;
56927;SDS011;60850;52.502;13.426;2023-05-10T07:25:19;2.70;;;1.92;;
56927;SDS011;60850;52.502;13.426;2023-05-10T07:27:46;3.33;;;2.20;;
56927;SDS011;60850;52.502;13.426;2023-05-10T07:30:15;4.70;;;2.40;;
56927;SDS011;60850;52.502;13.426;2023-05-10T07:32:42;3.60;;;2.25;;
56927;SDS011;60850;52.502;13.426;2023-05-10T07:35:09;3.60;;;1.90;;
56927;SDS011;60850;52.502;13.426;2023-05-10T07:37:35;3.20;;;2.08;;
56927;SDS011;60850;52.502;13.426;2023-05-10T07:40:03;4.60;;;2.13;;
56927;SDS011;60850;52.502;13.426;2023-05-10T07:42:30;2.33;;;1.83;;
56927;SDS011;60850;52.502;13.426;2023-05-10T07:44:57;4.57;;;2.40;;
56927;SDS011;60850;52.502;13.426;2023-05-10T07:47:25;5.63;;;2.10;;
56927;SDS011;60850;52.502;13.426;2023-05-10T07:49:52;5.85;;;2.38;;
56927;SDS011;60850;52.502;13.426;2023-05-10T07:52:19;5.28;;;2.20;;
56927;SDS011;60850;52.502;13.426;2023-05-10T07:54:46;2.78;;;1.65;;
56927;SDS011;60850;52.502;13.426;2023-05-10T07:57:13;4.45;;;2.15;;
56927;SDS011;60850;52.502;13.426;2023-05-10T07:59:43;3.13;;;1.88;;
56927;SDS011;60850;52.502;13.426;2023-05-10T08:02:10;6.15;;;2.30;;
56927;SDS011;60850;52.502;13.426;2023-05-10T08:04:39;4.32;;;2.03;;
56927;SDS011;60850;52.502;13.426;2023-05-10T08:07:06;3.83;;;2.08;;
56927;SDS011;60850;52.502;13.426;2023-05-10T08:09:33;2.75;;;2.10;;
56927;SDS011;60850;52.502;13.426;2023-05-10T08:11:59;6.97;;;2.00;;
56927;SDS011;60850;52.502;13.426;2023-05-10T08:14:27;4.95;;;2.10;;
56927;SDS011;60850;52.502;13.426;2023-05-10T08:16:54;3.40;;;1.83;;
56927;SDS011;60850;52.502;13.426;2023-05-10T08:19:21;2.97;;;2.08;;
56927;SDS011;60850;52.502;13.426;2023-05-10T08:21:50;5.32;;;2.25;;
56927;SDS011;60850;52.502;13.426;2023-05-10T08:24:17;5.22;;;2.03;;
56927;SDS011;60850;52.502;13.426;2023-05-10T08:26:44;3.65;;;2.17;;
56927;SDS011;60850;52.502;13.426;2023-05-10T08:29:11;4.32;;;2.00;;
56927;SDS011;60850;52.502;13.426;2023-05-10T08:31:38;3.13;;;2.45;;
56927;SDS011;60850;52.502;13.426;2023-05-10T08:34:05;6.10;;;2.60;;
56927;SDS011;60850;52.502;13.426;2023-05-10T08:36:32;3.15;;;2.22;;
56927;SDS011;60850;52.502;13.426;2023-05-10T08:39:00;5.53;;;2.45;;
56927;SDS011;60850;52.502;13.426;2023-05-10T08:41:27;3.20;;;2.00;;
56927;SDS011;60850;52.502;13.426;2023-05-10T08:43:55;4.10;;;2.22;;
56927;SDS011;60850;52.502;13.426;2023-05-10T08:46:22;4.85;;;2.10;;
56927;SDS011;60850;52.502;13.426;2023-05-10T08:48:50;3.30;;;2.13;;
56927;SDS011;60850;52.502;13.426;2023-05-10T08:51:18;2.92;;;1.85;;
56927;SDS011;60850;52.502;13.426;2023-05-10T08:53:46;2.75;;;2.10;;
56927;SDS011;60850;52.502;13.426;2023-05-10T08:56:15;3.65;;;2.00;;
56927;SDS011;60850;52.502;13.426;2023-05-10T08:58:43;2.30;;;1.90;;
56927;SDS011;60850;52.502;13.426;2023-05-10T09:01:10;4.13;;;2.30;;
56927;SDS011;60850;52.502;13.426;2023-05-10T09:03:39;2.95;;;2.22;;
56927;SDS011;60850;52.502;13.426;2023-05-10T09:06:06;4.93;;;2.22;;
56927;SDS011;60850;52.502;13.426;2023-05-10T09:08:33;3.47;;;2.17;;
56927;SDS011;60850;52.502;13.426;2023-05-10T09:11:02;6.00;;;1.90;;
56927;SDS011;60850;52.502;13.426;2023-05-10T09:13:30;3.83;;;2.00;;
56927;SDS011;60850;52.502;13.426;2023-05-10T09:15:58;5.88;;;2.50;;
56927;SDS011;60850;52.502;13.426;2023-05-10T09:18:28;3.45;;;2.13;;
56927;SDS011;60850;52.502;13.426;2023-05-10T09:20:54;6.95;;;2.38;;
56927;SDS011;60850;52.502;13.426;2023-05-10T09:23:22;4.50;;;2.63;;
56927;SDS011;60850;52.502;13.426;2023-05-10T09:26:01;3.17;;;2.10;;
56927;SDS011;60850;52.502;13.426;2023-05-10T09:28:32;4.38;;;2.13;;
56927;SDS011;60850;52.502;13.426;2023-05-10T09:30:59;3.45;;;1.98;;
56927;SDS011;60850;52.502;13.426;2023-05-10T09:33:26;3.80;;;1.88;;
56927;SDS011;60850;52.502;13.426;2023-05-10T09:35:53;4.85;;;2.30;;
56927;SDS011;60850;52.502;13.426;2023-05-10T09:38:20;4.65;;;2.20;;
56927;SDS011;60850;52.502;13.426;2023-05-10T09:40:50;3.42;;;1.95;;
56927;SDS011;60850;52.502;13.426;2023-05-10T09:43:19;4.57;;;2.28;;
56927;SDS011;60850;52.502;13.426;2023-05-10T09:45:49;4.05;;;2.17;;
56927;SDS011;60850;52.502;13.426;2023-05-10T09:48:16;3.83;;;2.20;;
56927;SDS011;60850;52.502;13.426;2023-05-10T09:50:43;2.88;;;2.05;;
56927;SDS011;60850;52.502;13.426;2023-05-10T09:53:10;3.95;;;2.08;;
56927;SDS011;60850;52.502;13.426;2023-05-10T09:55:41;5.10;;;2.25;;
56927;SDS011;60850;52.502;13.426;2023-05-10T09:58:10;2.65;;;2.00;;
56927;SDS011;60850;52.502;13.426;2023-05-10T10:00:37;3.30;;;2.08;;
56927;SDS011;60850;52.502;13.426;2023-05-10T10:03:11;5.18;;;2.33;;
56927;SDS011;60850;52.502;13.426;2023-05-10T10:05:40;3.50;;;2.30;;
56927;SDS011;60850;52.502;13.426;2023-05-10T10:08:08;6.43;;;2.17;;
56927;SDS011;60850;52.502;13.426;2023-05-10T10:10:35;5.47;;;2.00;;
56927;SDS011;60850;52.502;13.426;2023-05-10T10:13:02;4.15;;;2.13;;
56927;SDS011;60850;52.502;13.426;2023-05-10T10:15:30;8.45;;;2.80;;
56927;SDS011;60850;52.502;13.426;2023-05-10T10:17:57;2.90;;;2.25;;
56927;SDS011;60850;52.502;13.426;2023-05-10T10:20:26;3.10;;;2.50;;
56927;SDS011;60850;52.502;13.426;2023-05-10T10:22:54;2.97;;;2.10;;
56927;SDS011;60850;52.502;13.426;2023-05-10T10:25:21;2.80;;;1.90;;
56927;SDS011;60850;52.502;13.426;2023-05-10T10:27:54;4.70;;;2.33;;
56927;SDS011;60850;52.502;13.426;2023-05-10T10:30:38;8.93;;;2.60;;
56927;SDS011;60850;52.502;13.426;2023-05-10T10:33:13;4.78;;;2.70;;
56927;SDS011;60850;52.502;13.426;2023-05-10T10:35:59;2.63;;;2.42;;
56927;SDS011;60850;52.502;13.426;2023-05-10T10:38:35;4.10;;;2.50;;
56927;SDS011;60850;52.502;13.426;2023-05-10T10:41:09;5.03;;;3.67;;
56927;SDS011;60850;52.502;13.426;2023-05-10T10:43:37;3.47;;;2.53;;
56927;SDS011;60850;52.502;13.426;2023-05-10T10:46:13;4.53;;;2.47;;
56927;SDS011;60850;52.502;13.426;2023-05-10T10:48:41;5.15;;;2.53;;
56927;SDS011;60850;52.502;13.426;2023-05-10T10:51:14;6.15;;;2.22;;
56927;SDS011;60850;52.502;13.426;2023-05-10T10:53:42;4.20;;;2.33;;
56927;SDS011;60850;52.502;13.426;2023-05-10T10:56:10;2.90;;;2.20;;
56927;SDS011;60850;52.502;13.426;2023-05-10T10:58:39;5.40;;;2.45;;
56927;SDS011;60850;52.502;13.426;2023-05-10T11:01:10;3.70;;;2.53;;
56927;SDS011;60850;52.502;13.426;2023-05-10T11:03:38;4.68;;;2.22;;
56927;SDS011;60850;52.502;13.426;2023-05-10T11:06:05;3.13;;;2.35;;
56927;SDS011;60850;52.502;13.426;2023-05-10T11:08:41;5.22;;;2.70;;
56927;SDS011;60850;52.502;13.426;2023-05-10T11:11:09;2.78;;;2.15;;
56927;SDS011;60850;52.502;13.426;2023-05-10T11:13:41;5.28;;;2.20;;
56927;SDS011;60850;52.502;13.426;2023-05-10T11:16:14;2.70;;;2.17;;
56927;SDS011;60850;52.502;13.426;2023-05-10T11:18:56;3.72;;;2.10;;
56927;SDS011;60850;52.502;13.426;2023-05-10T11:21:26;5.03;;;2.72;;
56927;SDS011;60850;52.502;13.426;2023-05-10T11:23:56;3.90;;;2.47;;
56927;SDS011;60850;52.502;13.426;2023-05-10T11:26:24;4.40;;;2.72;;
56927;SDS011;60850;52.502;13.426;2023-05-10T11:28:52;6.20;;;3.13;;
56927;SDS011;60850;52.502;13.426;2023-05-10T11:31:20;3.97;;;2.72;;
56927;SDS011;60850;52.502;13.426;2023-05-10T11:33:48;4.03;;;2.50;;
56927;SDS011;60850;52.502;13.426;2023-05-10T11:36:21;4.53;;;3.30;;
56927;SDS011;60850;52.502;13.426;2023-05-10T11:38:50;5.15;;;2.97;;
56927;SDS011;60850;52.502;13.426;2023-05-10T11:41:19;2.85;;;2.42;;
56927;SDS011;60850;52.502;13.426;2023-05-10T11:43:49;3.75;;;2.53;;
56927;SDS011;60850;52.502;13.426;2023-05-10T11:46:18;6.70;;;3.50;;
56927;SDS011;60850;52.502;13.426;2023-05-10T11:48:46;4.25;;;2.47;;
56927;SDS011;60850;52.502;13.426;2023-05-10T11:51:19;3.13;;;2.35;;
56927;SDS011;60850;52.502;13.426;2023-05-10T11:53:47;5.10;;;2.75;;
56927;SDS011;60850;52.502;13.426;2023-05-10T11:56:15;4.68;;;2.88;;
56927;SDS011;60850;52.502;13.426;2023-05-10T11:58:44;7.53;;;4.35;;
56927;SDS011;60850;52.502;13.426;2023-05-10T12:01:12;4.30;;;2.83;;
56927;SDS011;60850;52.502;13.426;2023-05-10T12:03:39;3.47;;;2.30;;
56927;SDS011;60850;52.502;13.426;2023-05-10T12:06:06;4.07;;;2.00;;
56927;SDS011;60850;52.502;13.426;2023-05-10T12:08:34;9.93;;;2.40;;
56927;SDS011;60850;52.502;13.426;2023-05-10T12:11:04;7.70;;;2.38;;
56927;SDS011;60850;52.502;13.426;2023-05-10T12:13:36;4.15;;;2.10;;
56927;SDS011;60850;52.502;13.426;2023-05-10T12:16:13;1.98;;;1.73;;
56927;SDS011;60850;52.502;13.426;2023-05-10T12:18:41;3.88;;;2.15;;
56927;SDS011;60850;52.502;13.426;2023-05-10T12:21:12;4.15;;;2.28;;
56927;SDS011;60850;52.502;13.426;2023-05-10T12:23:39;5.55;;;2.53;;
56927;SDS011;60850;52.502;13.426;2023-05-10T12:26:06;4.95;;;2.58;;
56927;SDS011;60850;52.502;13.426;2023-05-10T12:28:35;3.53;;;1.92;;
56927;SDS011;60850;52.502;13.426;2023-05-10T12:31:02;5.13;;;2.58;;
56927;SDS011;60850;52.502;13.426;2023-05-10T12:33:36;5.93;;;2.42;;
56927;SDS011;60850;52.502;13.426;2023-05-10T12:36:08;5.70;;;2.50;;
56927;SDS011;60850;52.502;13.426;2023-05-10T12:38:36;2.30;;;2.00;;
56927;SDS011;60850;52.502;13.426;2023-05-10T12:41:05;8.10;;;3.22;;
56927;SDS011;60850;52.502;13.426;2023-05-10T12:43:33;6.95;;;2.67;;
56927;SDS011;60850;52.502;13.426;2023-05-10T12:46:04;4.75;;;2.72;;
56927;SDS011;60850;52.502;13.426;2023-05-10T12:48:31;4.70;;;2.97;;
56927;SDS011;60850;52.502;13.426;2023-05-10T12:51:00;5.93;;;2.88;;
56927;SDS011;60850;52.502;13.426;2023-05-10T12:53:27;4.00;;;2.42;;
56927;SDS011;60850;52.502;13.426;2023-05-10T12:55:54;3.50;;;2.20;;
56927;SDS011;60850;52.502;13.426;2023-05-10T12:58:21;2.38;;;2.03;;
56927;SDS011;60850;52.502;13.426;2023-05-10T13:00:48;4.32;;;3.30;;
56927;SDS011;60850;52.502;13.426;2023-05-10T13:03:17;5.28;;;2.40;;
56927;SDS011;60850;52.502;13.426;2023-05-10T13:05:44;2.58;;;2.10;;
56927;SDS011;60850;52.502;13.426;2023-05-10T13:08:12;3.15;;;1.83;;
56927;SDS011;60850;52.502;13.426;2023-05-10T13:10:39;4.53;;;2.92;;
56927;SDS011;60850;52.502;13.426;2023-05-10T13:13:06;5.60;;;3.50;;
56927;SDS011;60850;52.502;13.426;2023-05-10T13:15:34;2.72;;;1.98;;
56927;SDS011;60850;52.502;13.426;2023-05-10T13:18:01;5.90;;;3.08;;
56927;SDS011;60850;52.502;13.426;2023-05-10T13:20:27;11.55;;;5.72;;
56927;SDS011;60850;52.502;13.426;2023-05-10T13:22:55;10.95;;;4.72;;
56927;SDS011;60850;52.502;13.426;2023-05-10T13:25:23;5.55;;;3.00;;
56927;SDS011;60850;52.502;13.426;2023-05-10T13:27:50;3.88;;;2.50;;
56927;SDS011;60850;52.502;13.426;2023-05-10T13:30:17;6.00;;;2.60;;
56927;SDS011;60850;52.502;13.426;2023-05-10T13:32:44;4.70;;;2.60;;
56927;SDS011;60850;52.502;13.426;2023-05-10T13:35:11;5.50;;;3.13;;
56927;SDS011;60850;52.502;13.426;2023-05-10T13:37:38;2.40;;;2.20;;
56927;SDS011;60850;52.502;13.426;2023-05-10T13:40:05;2.88;;;2.20;;
56927;SDS011;60850;52.502;13.426;2023-05-10T13:42:34;3.58;;;2.38;;
56927;SDS011;60850;52.502;13.426;2023-05-10T13:45:01;3.53;;;2.33;;
56927;SDS011;60850;52.502;13.426;2023-05-10T13:47:29;9.60;;;2.97;;
56927;SDS011;60850;52.502;13.426;2023-05-10T13:49:56;5.07;;;2.33;;
56927;SDS011;60850;52.502;13.426;2023-05-10T13:52:23;5.97;;;2.22;;
56927;SDS011;60850;52.502;13.426;2023-05-10T13:54:50;3.38;;;2.22;;
56927;SDS011;60850;52.502;13.426;2023-05-10T13:57:20;3.42;;;2.10;;
56927;SDS011;60850;52.502;13.426;2023-05-10T13:59:48;4.40;;;2.20;;
56927;SDS011;60850;52.502;13.426;2023-05-10T14:02:15;3.00;;;2.22;;
56927;SDS011;60850;52.502;13.426;2023-05-10T14:04:42;3.92;;;2.15;;
56927;SDS011;60850;52.502;13.426;2023-05-10T14:07:10;3.53;;;2.17;;
56927;SDS011;60850;52.502;13.426;2023-05-10T14:09:36;2.97;;;2.08;;
56927;SDS011;60850;52.502;13.426;2023-05-10T14:12:03;4.20;;;2.97;;
56927;SDS011;60850;52.502;13.426;2023-05-10T14:14:30;5.30;;;2.40;;
56927;SDS011;60850;52.502;13.426;2023-05-10T14:16:59;3.58;;;2.28;;
56927;SDS011;60850;52.502;13.426;2023-05-10T14:19:26;4.28;;;2.30;;
56927;SDS011;60850;52.502;13.426;2023-05-10T14:21:56;5.65;;;3.40;;
56927;SDS011;60850;52.502;13.426;2023-05-10T14:24:23;5.38;;;2.95;;
56927;SDS011;60850;52.502;13.426;2023-05-10T14:26:50;4.90;;;2.90;;
56927;SDS011;60850;52.502;13.426;2023-05-10T14:29:18;6.50;;;2.58;;
56927;SDS011;60850;52.502;13.426;2023-05-10T14:31:45;7.00;;;4.53;;
56927;SDS011;60850;52.502;13.426;2023-05-10T14:34:14;3.47;;;2.50;;
56927;SDS011;60850;52.502;13.426;2023-05-10T14:36:41;3.95;;;2.35;;
56927;SDS011;60850;52.502;13.426;2023-05-10T14:39:08;5.10;;;2.35;;
56927;SDS011;60850;52.502;13.426;2023-05-10T14:41:35;5.70;;;2.28;;
56927;SDS011;60850;52.502;13.426;2023-05-10T14:44:02;4.13;;;2.22;;